Terminal Aerodrome Forecast
Issued by NWS Goodland, KS

Home | Current Version | Previous Version | Text Only | Print | Product List | Glossary On
Versions: 1 2 3 4 5 6 7 8 9 10 11 12 13
643
FTUS43 KGLD 262355
TAFGLD
TAF
KGLD 262355Z 2700/2724 18008KT P6SM SKC
     FM270700 17008KT P6SM SKC WS010/17040KT
     FM271200 19009KT P6SM FEW250
     FM272000 20013KT P6SM FEW250=

USA.gov is the U.S. government's official web portal to all federal, state and local government web resources and services.